Time;durP1;ratioP1;P1;durP2;ratioP2;P2;SDS_P1;SDS_P2;PMS_P1;PMS_P2;Temp;Humidity;BMP_temperature;BMP_pressure;BME280_temperature;BME280_humidity;BME280_pressure;Samples;Min_cycle;Max_cycle;Signal;HPM_P1;HPM_P2
2022/08/19 00:01:38;;;;;;;5.55;5.05;;;;;;;;;;5072003;28;20236;-74
2022/08/19 00:04:06;;;;;;;6.88;4.95;;;;;;;;;;5059361;28;20219;-75
2022/08/19 00:06:31;;;;;;;5.55;5.00;;;;;;;;;;5073852;28;20217;-74
2022/08/19 00:09:00;;;;;;;5.63;5.10;;;;;;;;;;5056470;28;20222;-74
2022/08/19 00:11:28;;;;;;;6.97;5.38;;;;;;;;;;5071668;28;20236;-75
2022/08/19 00:13:56;;;;;;;7.00;5.22;;;;;;;;;;5046913;28;20215;-74
2022/08/19 00:16:24;;;;;;;6.13;4.95;;;;;;;;;;5060954;28;20279;-75
2022/08/19 00:18:50;;;;;;;6.18;5.55;;;;;;;;;;5055392;28;20221;-74
2022/08/19 00:21:15;;;;;;;6.90;5.78;;;;;;;;;;5043170;28;20230;-74
2022/08/19 00:23:41;;;;;;;5.80;5.30;;;;;;;;;;5054121;28;20680;-74
2022/08/19 00:26:10;;;;;;;7.22;5.45;;;;;;;;;;5055486;28;20266;-74
2022/08/19 00:28:36;;;;;;;5.75;4.93;;;;;;;;;;5055198;28;20329;-74
2022/08/19 00:31:07;;;;;;;6.75;5.50;;;;;;;;;;5075655;28;20321;-75
2022/08/19 00:33:35;;;;;;;6.03;5.38;;;;;;;;;;5056844;28;20309;-74
2022/08/19 00:36:01;;;;;;;6.10;5.25;;;;;;;;;;5074980;28;20235;-75
2022/08/19 00:38:29;;;;;;;6.38;5.68;;;;;;;;;;5060574;28;20976;-74
2022/08/19 00:40:55;;;;;;;6.97;5.20;;;;;;;;;;5051875;28;20222;-74
2022/08/19 00:43:23;;;;;;;6.40;5.63;;;;;;;;;;5041877;28;20233;-75
2022/08/19 00:45:49;;;;;;;6.35;5.75;;;;;;;;;;5064581;28;20291;-74
2022/08/19 00:48:18;;;;;;;9.98;6.32;;;;;;;;;;5067376;28;20211;-75
2022/08/19 00:50:46;;;;;;;6.47;5.80;;;;;;;;;;5060184;28;20227;-75
2022/08/19 00:53:14;;;;;;;6.50;5.90;;;;;;;;;;5055442;28;20242;-75
2022/08/19 00:55:46;;;;;;;6.57;5.88;;;;;;;;;;5062012;28;20235;-75
2022/08/19 00:58:21;;;;;;;6.85;5.80;;;;;;;;;;5061647;28;20223;-76
2022/08/19 01:00:49;;;;;;;6.28;5.70;;;;;;;;;;5075179;28;20229;-76
2022/08/19 01:03:19;;;;;;;6.35;5.85;;;;;;;;;;5050814;28;20253;-75
2022/08/19 01:06:06;;;;;;;6.03;5.53;;;;;;;;;;5051545;28;20253;-75
2022/08/19 01:08:32;;;;;;;7.00;6.30;;;;;;;;;;5063132;28;20259;-75
2022/08/19 01:11:00;;;;;;;7.03;6.35;;;;;;;;;;5084387;28;20230;-75
2022/08/19 01:13:28;;;;;;;8.15;6.43;;;;;;;;;;5015455;28;20225;-75
2022/08/19 01:16:03;;;;;;;7.22;6.32;;;;;;;;;;5059764;28;20992;-74
2022/08/19 01:18:28;;;;;;;6.97;6.35;;;;;;;;;;5067421;28;20231;-75
2022/08/19 01:20:58;;;;;;;6.82;6.15;;;;;;;;;;5052540;28;20215;-75
2022/08/19 01:23:42;;;;;;;7.18;6.57;;;;;;;;;;5059090;28;20213;-75
2022/08/19 01:26:19;;;;;;;6.97;6.38;;;;;;;;;;5083629;28;20230;-75
2022/08/19 01:28:45;;;;;;;7.03;6.43;;;;;;;;;;5039282;28;20224;-75
2022/08/19 01:31:18;;;;;;;7.22;6.43;;;;;;;;;;5046264;28;20226;-75
2022/08/19 01:33:44;;;;;;;7.03;6.43;;;;;;;;;;5049289;28;20261;-75
2022/08/19 01:36:17;;;;;;;7.43;6.30;;;;;;;;;;5043951;28;20226;-74
2022/08/19 01:38:48;;;;;;;7.07;6.38;;;;;;;;;;5066268;28;20222;-75
2022/08/19 01:41:13;;;;;;;9.25;6.45;;;;;;;;;;5084461;28;20633;-75
2022/08/19 01:43:44;;;;;;;6.88;6.28;;;;;;;;;;5058337;28;20214;-75
2022/08/19 01:46:12;;;;;;;9.25;6.00;;;;;;;;;;5063246;28;20593;-75
2022/08/19 01:48:41;;;;;;;8.45;6.18;;;;;;;;;;5041882;28;20309;-76
2022/08/19 01:51:10;;;;;;;6.43;5.68;;;;;;;;;;5073469;28;20227;-75
2022/08/19 01:53:35;;;;;;;7.22;6.13;;;;;;;;;;5052029;28;20309;-75
2022/08/19 01:56:03;;;;;;;6.22;5.70;;;;;;;;;;5074306;28;20575;-75
2022/08/19 01:58:36;;;;;;;6.05;5.55;;;;;;;;;;5043756;28;20218;-75
2022/08/19 02:01:04;;;;;;;6.70;6.15;;;;;;;;;;5061366;28;20229;-75
2022/08/19 02:03:34;;;;;;;6.13;5.60;;;;;;;;;;5061915;28;20242;-75
2022/08/19 02:06:02;;;;;;;6.93;6.00;;;;;;;;;;5060539;28;20211;-75
2022/08/19 02:08:28;;;;;;;6.68;6.03;;;;;;;;;;5073995;28;20218;-75
2022/08/19 02:10:53;;;;;;;9.23;6.40;;;;;;;;;;5056413;28;20246;-75
2022/08/19 02:13:23;;;;;;;6.07;5.57;;;;;;;;;;5056662;28;20721;-74
2022/08/19 02:15:51;;;;;;;6.70;6.18;;;;;;;;;;5064004;28;20218;-75
2022/08/19 02:18:17;;;;;;;6.78;6.18;;;;;;;;;;5067325;28;20257;-74
2022/08/19 02:20:43;;;;;;;7.57;6.15;;;;;;;;;;5046333;28;20619;-75
2022/08/19 02:23:11;;;;;;;6.65;6.05;;;;;;;;;;5066054;28;20967;-75
2022/08/19 02:25:41;;;;;;;6.13;5.63;;;;;;;;;;5055170;28;20218;-75
2022/08/19 02:28:07;;;;;;;6.50;5.90;;;;;;;;;;5044025;28;20215;-75
2022/08/19 02:30:35;;;;;;;12.75;5.97;;;;;;;;;;5053983;28;20225;-75
2022/08/19 02:33:02;;;;;;;7.03;6.32;;;;;;;;;;5049456;28;20214;-75
2022/08/19 02:35:30;;;;;;;6.40;5.70;;;;;;;;;;5053859;28;20939;-74
2022/08/19 02:40:57;;;;;;;7.03;5.47;;;;;;;;;;5081592;28;20716;-75
2022/08/19 02:43:23;;;;;;;5.63;5.20;;;;;;;;;;5061400;28;20241;-74
2022/08/19 02:45:51;;;;;;;5.78;5.28;;;;;;;;;;5058475;28;20771;-74
2022/08/19 02:48:18;;;;;;;6.10;5.35;;;;;;;;;;5073755;28;20231;-74
2022/08/19 02:50:43;;;;;;;6.00;5.50;;;;;;;;;;5059616;28;20660;-75
2022/08/19 02:53:13;;;;;;;5.88;5.25;;;;;;;;;;5052001;28;20222;-75
2022/08/19 02:55:45;;;;;;;5.30;4.90;;;;;;;;;;5066035;28;20238;-75
2022/08/19 02:58:11;;;;;;;5.57;4.68;;;;;;;;;;5063788;28;20226;-75
2022/08/19 03:00:45;;;;;;;6.32;5.07;;;;;;;;;;5074028;28;20222;-75
2022/08/19 03:03:15;;;;;;;5.30;4.90;;;;;;;;;;5058247;28;20225;-76
2022/08/19 03:05:41;;;;;;;6.22;5.30;;;;;;;;;;5060821;28;20218;-75
2022/08/19 03:08:11;;;;;;;5.30;4.75;;;;;;;;;;5075643;28;20225;-75
2022/08/19 03:10:43;;;;;;;5.60;5.10;;;;;;;;;;5043512;28;20223;-75
2022/08/19 03:13:09;;;;;;;5.22;4.60;;;;;;;;;;5043908;28;20229;-75
2022/08/19 03:15:40;;;;;;;5.47;4.78;;;;;;;;;;5056179;28;20238;-75
2022/08/19 03:18:09;;;;;;;5.10;4.60;;;;;;;;;;5057469;28;20217;-75
2022/08/19 03:20:47;;;;;;;6.13;5.20;;;;;;;;;;5073276;28;20607;-74
2022/08/19 03:23:15;;;;;;;5.18;4.30;;;;;;;;;;5053680;28;20727;-76
2022/08/19 03:25:44;;;;;;;6.20;4.72;;;;;;;;;;5065431;28;20633;-75
2022/08/19 03:28:11;;;;;;;6.82;4.95;;;;;;;;;;5040113;28;20652;-75
2022/08/19 03:30:37;;;;;;;6.28;4.70;;;;;;;;;;5057341;28;20279;-75
2022/08/19 03:33:04;;;;;;;8.05;4.95;;;;;;;;;;5073457;28;20325;-76
2022/08/19 03:35:32;;;;;;;6.10;4.70;;;;;;;;;;5043754;28;21159;-75
2022/08/19 03:38:01;;;;;;;4.80;4.40;;;;;;;;;;5076460;28;20238;-75
2022/08/19 03:40:26;;;;;;;5.35;4.88;;;;;;;;;;5070051;28;20271;-75
2022/08/19 03:42:52;;;;;;;5.10;4.65;;;;;;;;;;5040623;28;20226;-75
2022/08/19 03:45:19;;;;;;;5.78;4.95;;;;;;;;;;5044445;28;20218;-75
2022/08/19 03:47:50;;;;;;;5.10;4.63;;;;;;;;;;5075023;28;20245;-75
2022/08/19 03:50:18;;;;;;;4.90;4.40;;;;;;;;;;5069376;28;20222;-75
2022/08/19 03:52:50;;;;;;;5.15;4.10;;;;;;;;;;5082034;28;20232;-75
2022/08/19 03:55:19;;;;;;;5.30;4.72;;;;;;;;;;5026043;28;20226;-75
2022/08/19 03:57:45;;;;;;;5.88;5.32;;;;;;;;;;5041423;28;20214;-75
2022/08/19 04:00:16;;;;;;;4.70;4.30;;;;;;;;;;5057066;28;20219;-75
2022/08/19 04:02:42;;;;;;;7.20;4.85;;;;;;;;;;5059794;28;20710;-75
2022/08/19 04:05:08;;;;;;;5.22;4.63;;;;;;;;;;5025468;28;20213;-76
2022/08/19 04:07:36;;;;;;;5.47;4.95;;;;;;;;;;5070403;28;20211;-74
2022/08/19 04:10:04;;;;;;;4.97;4.50;;;;;;;;;;5064721;28;20225;-75
2022/08/19 04:12:32;;;;;;;7.20;4.95;;;;;;;;;;5074984;28;20238;-74
2022/08/19 04:14:58;;;;;;;5.05;4.55;;;;;;;;;;5062767;28;20245;-74
2022/08/19 04:17:23;;;;;;;4.80;4.40;;;;;;;;;;5052362;28;20719;-74
2022/08/19 04:19:51;;;;;;;5.78;4.68;;;;;;;;;;5057560;28;20222;-74
2022/08/19 04:22:18;;;;;;;5.22;4.13;;;;;;;;;;5076927;28;20235;-74
2022/08/19 04:24:43;;;;;;;6.72;4.60;;;;;;;;;;5062980;28;20226;-74
2022/08/19 04:27:09;;;;;;;5.80;4.40;;;;;;;;;;5059832;28;20222;-74
2022/08/19 04:29:39;;;;;;;7.75;4.68;;;;;;;;;;5076133;28;20232;-75
2022/08/19 04:32:05;;;;;;;5.25;4.75;;;;;;;;;;5066101;28;20218;-75
2022/08/19 04:34:31;;;;;;;4.90;4.50;;;;;;;;;;5085247;28;20254;-74
2022/08/19 04:36:58;;;;;;;5.18;4.60;;;;;;;;;;5078031;28;20231;-74
2022/08/19 04:44:58;;;;;;;5.22;4.63;;;;;;;;;;5075719;28;20379;-74
2022/08/19 04:47:24;;;;;;;5.10;4.70;;;;;;;;;;5058375;28;20232;-74
2022/08/19 04:49:52;;;;;;;7.97;4.57;;;;;;;;;;5058503;28;20218;-73
2022/08/19 04:52:17;;;;;;;7.30;4.80;;;;;;;;;;5046806;28;20233;-74
2022/08/19 04:54:45;;;;;;;5.13;4.45;;;;;;;;;;5066200;28;20309;-75
2022/08/19 04:57:13;;;;;;;5.13;4.57;;;;;;;;;;5082852;28;20222;-75
2022/08/19 04:59:38;;;;;;;5.20;4.70;;;;;;;;;;5060695;28;20597;-74
2022/08/19 05:02:09;;;;;;;5.22;4.72;;;;;;;;;;5040856;28;20712;-74
2022/08/19 05:04:38;;;;;;;5.38;4.82;;;;;;;;;;5063868;28;20215;-74
2022/08/19 05:07:07;;;;;;;6.47;4.25;;;;;;;;;;5051413;28;20254;-74
2022/08/19 05:09:34;;;;;;;5.68;5.00;;;;;;;;;;5058372;28;20226;-74
2022/08/19 05:12:05;;;;;;;4.93;4.45;;;;;;;;;;5047978;28;20254;-74
2022/08/19 05:14:33;;;;;;;5.70;4.55;;;;;;;;;;5045652;28;20246;-74
2022/08/19 05:17:01;;;;;;;4.30;3.90;;;;;;;;;;5078392;28;20638;-74
2022/08/19 05:22:35;;;;;;;5.63;5.13;;;;;;;;;;5062321;28;20222;-75
2022/08/19 05:25:29;;;;;;;7.05;5.22;;;;;;;;;;5079120;28;20227;-74
2022/08/19 05:27:57;;;;;;;9.27;4.78;;;;;;;;;;5058935;28;20210;-74
2022/08/19 05:30:22;;;;;;;5.15;4.70;;;;;;;;;;5067426;28;20270;-75
2022/08/19 05:32:50;;;;;;;5.93;5.03;;;;;;;;;;5041442;28;20245;-74
2022/08/19 05:35:18;;;;;;;7.55;5.20;;;;;;;;;;5061544;28;20730;-74
2022/08/19 05:37:44;;;;;;;5.13;4.65;;;;;;;;;;5075056;28;20210;-74
2022/08/19 05:40:09;;;;;;;5.90;5.32;;;;;;;;;;5050574;28;20250;-75
2022/08/19 05:42:35;;;;;;;5.20;4.60;;;;;;;;;;5057588;28;20223;-75
2022/08/19 05:45:03;;;;;;;4.95;4.53;;;;;;;;;;5051653;28;20218;-74
2022/08/19 05:47:28;;;;;;;9.85;5.00;;;;;;;;;;5061199;28;20249;-75
2022/08/19 05:49:54;;;;;;;5.10;4.57;;;;;;;;;;5044338;28;20707;-75
2022/08/19 05:52:22;;;;;;;4.80;4.40;;;;;;;;;;5042296;28;20222;-75
2022/08/19 05:54:50;;;;;;;5.00;4.55;;;;;;;;;;5062314;28;20233;-75
2022/08/19 05:57:18;;;;;;;6.35;4.90;;;;;;;;;;5042027;28;20751;-74
2022/08/19 05:59:46;;;;;;;5.05;4.55;;;;;;;;;;5050601;28;20222;-75
2022/08/19 06:02:13;;;;;;;5.20;4.70;;;;;;;;;;5048180;28;20245;-75
2022/08/19 06:04:42;;;;;;;5.07;4.60;;;;;;;;;;5064894;28;20279;-74
2022/08/19 06:07:08;;;;;;;5.38;4.20;;;;;;;;;;5042996;28;20318;-75
2022/08/19 06:09:33;;;;;;;4.60;4.20;;;;;;;;;;5046632;28;20724;-76
2022/08/19 06:11:59;;;;;;;7.90;7.10;;;;;;;;;;5063275;28;20225;-75
2022/08/19 06:14:32;;;;;;;7.22;6.50;;;;;;;;;;5056036;28;20226;-74
2022/08/19 06:17:01;;;;;;;6.82;5.70;;;;;;;;;;5055785;28;20698;-75
2022/08/19 06:19:29;;;;;;;8.73;5.70;;;;;;;;;;5067045;28;20561;-75
2022/08/19 06:21:58;;;;;;;8.60;5.00;;;;;;;;;;5059431;28;20284;-74
2022/08/19 06:24:26;;;;;;;6.63;5.13;;;;;;;;;;5074582;28;20246;-76
2022/08/19 06:26:55;;;;;;;6.95;5.32;;;;;;;;;;5064563;28;20210;-75
2022/08/19 06:29:24;;;;;;;7.28;6.57;;;;;;;;;;5051068;28;20222;-75
2022/08/19 06:31:51;;;;;;;7.60;6.88;;;;;;;;;;5060849;28;20728;-75
2022/08/19 06:34:17;;;;;;;6.88;6.15;;;;;;;;;;5044442;28;20226;-75
2022/08/19 06:36:49;;;;;;;5.75;5.25;;;;;;;;;;5081668;28;20230;-75
2022/08/19 06:39:26;;;;;;;8.13;6.03;;;;;;;;;;5041908;28;20234;-75
2022/08/19 06:41:54;;;;;;;6.97;5.95;;;;;;;;;;5074384;28;20230;-75
2022/08/19 06:44:25;;;;;;;7.05;6.13;;;;;;;;;;5039583;28;20257;-75
2022/08/19 06:46:51;;;;;;;8.27;5.70;;;;;;;;;;5061835;28;20237;-75
2022/08/19 06:49:19;;;;;;;9.32;6.15;;;;;;;;;;5045623;28;20296;-74
2022/08/19 06:51:48;;;;;;;6.63;5.90;;;;;;;;;;5058373;28;20272;-75
2022/08/19 06:54:16;;;;;;;7.53;6.18;;;;;;;;;;5055663;28;20222;-75
2022/08/19 06:56:43;;;;;;;7.25;6.55;;;;;;;;;;5064034;28;20283;-75
2022/08/19 06:59:17;;;;;;;9.63;5.70;;;;;;;;;;5064165;28;20222;-76
2022/08/19 07:01:54;;;;;;;6.95;6.35;;;;;;;;;;5075115;28;20221;-76
2022/08/19 07:04:24;;;;;;;9.65;6.25;;;;;;;;;;5082522;28;20233;-76
2022/08/19 07:06:57;;;;;;;7.25;6.60;;;;;;;;;;5048158;28;20275;-75
2022/08/19 07:09:28;;;;;;;7.53;5.97;;;;;;;;;;5058974;28;20222;-75
2022/08/19 07:11:53;;;;;;;7.15;6.20;;;;;;;;;;5063673;28;20257;-76
2022/08/19 07:14:27;;;;;;;6.75;6.10;;;;;;;;;;5052918;28;20858;-75
2022/08/19 07:16:54;;;;;;;7.18;6.47;;;;;;;;;;5068720;28;20231;-75
2022/08/19 07:19:22;;;;;;;7.72;5.75;;;;;;;;;;5047971;28;21024;-75
2022/08/19 07:21:53;;;;;;;6.47;5.93;;;;;;;;;;5055778;28;20218;-76
2022/08/19 07:24:23;;;;;;;6.53;5.93;;;;;;;;;;5037350;28;20688;-76
2022/08/19 07:26:53;;;;;;;7.70;6.13;;;;;;;;;;5076690;28;20210;-75
2022/08/19 07:29:22;;;;;;;7.15;6.45;;;;;;;;;;5073025;28;20247;-76
2022/08/19 07:31:49;;;;;;;10.60;6.03;;;;;;;;;;5026371;28;20224;-75
2022/08/19 07:34:15;;;;;;;8.25;6.03;;;;;;;;;;5047119;28;20222;-76
2022/08/19 07:36:41;;;;;;;7.68;6.97;;;;;;;;;;5071946;28;20234;-77
2022/08/19 07:39:16;;;;;;;7.07;6.38;;;;;;;;;;5064530;28;20214;-76
2022/08/19 07:41:44;;;;;;;8.02;6.72;;;;;;;;;;5064348;28;20648;-75
2022/08/19 07:44:10;;;;;;;7.88;7.07;;;;;;;;;;5051124;28;20208;-75
2022/08/19 07:46:37;;;;;;;7.47;6.78;;;;;;;;;;5075729;28;20218;-75
2022/08/19 07:49:04;;;;;;;8.57;7.28;;;;;;;;;;5059304;28;21191;-75
2022/08/19 07:51:34;;;;;;;7.85;6.65;;;;;;;;;;5043961;28;20261;-76
2022/08/19 07:54:00;;;;;;;7.97;7.00;;;;;;;;;;5056477;28;20593;-77
2022/08/19 07:56:25;;;;;;;8.23;7.50;;;;;;;;;;5065558;28;20225;-76
2022/08/19 07:58:51;;;;;;;10.80;7.55;;;;;;;;;;5042514;28;20330;-77
2022/08/19 08:01:23;;;;;;;7.13;6.43;;;;;;;;;;5044807;28;20218;-76
2022/08/19 08:09:22;;;;;;;8.93;8.02;;;;;;;;;;5058744;28;20625;-76
2022/08/19 08:12:03;;;;;;;8.38;7.68;;;;;;;;;;5037015;28;20217;-76
2022/08/19 08:14:40;;;;;;;9.40;8.55;;;;;;;;;;5076199;28;20235;-77
2022/08/19 08:17:08;;;;;;;9.07;8.20;;;;;;;;;;5080351;28;20222;-76
2022/08/19 08:19:34;;;;;;;8.85;8.00;;;;;;;;;;5063569;28;20219;-76
2022/08/19 08:22:06;;;;;;;8.90;8.10;;;;;;;;;;5046622;28;20601;-75
2022/08/19 08:24:35;;;;;;;12.48;8.02;;;;;;;;;;5064252;28;20226;-75
2022/08/19 08:27:01;;;;;;;9.23;7.82;;;;;;;;;;5061849;28;20574;-75
2022/08/19 08:29:27;;;;;;;9.07;7.68;;;;;;;;;;5041013;28;20252;-75
2022/08/19 08:31:57;;;;;;;9.45;8.55;;;;;;;;;;5076428;28;20206;-75
2022/08/19 08:34:30;;;;;;;9.70;8.77;;;;;;;;;;5044393;28;20234;-76
2022/08/19 08:36:57;;;;;;;11.75;8.95;;;;;;;;;;5052448;28;20226;-75
2022/08/19 08:39:23;;;;;;;11.95;8.32;;;;;;;;;;5068535;28;20700;-76
2022/08/19 08:41:57;;;;;;;9.68;8.77;;;;;;;;;;5055951;28;20263;-76
2022/08/19 08:44:38;;;;;;;9.60;8.35;;;;;;;;;;5077318;28;20227;-75
2022/08/19 08:47:12;;;;;;;9.40;8.60;;;;;;;;;;5061910;28;20252;-76
2022/08/19 08:49:51;;;;;;;8.98;8.18;;;;;;;;;;5066622;28;20225;-76
2022/08/19 08:52:27;;;;;;;9.27;7.82;;;;;;;;;;5052866;28;20226;-75
2022/08/19 08:54:57;;;;;;;9.20;8.45;;;;;;;;;;5073450;28;20227;-76
2022/08/19 08:57:32;;;;;;;9.68;8.75;;;;;;;;;;5061424;28;20264;-75
2022/08/19 08:59:58;;;;;;;11.40;9.25;;;;;;;;;;5047851;28;20222;-76
2022/08/19 09:02:26;;;;;;;8.60;7.90;;;;;;;;;;5045127;28;20308;-76
2022/08/19 09:04:52;;;;;;;9.35;8.43;;;;;;;;;;5046091;28;20661;-75
2022/08/19 09:07:46;;;;;;;8.13;7.43;;;;;;;;;;5067844;28;20283;-76
2022/08/19 09:10:18;;;;;;;9.52;8.63;;;;;;;;;;5069235;28;20325;-76
2022/08/19 09:12:49;;;;;;;9.10;8.20;;;;;;;;;;5084707;28;20223;-77
2022/08/19 09:15:32;;;;;;;9.65;8.75;;;;;;;;;;5081865;28;20218;-76
2022/08/19 09:18:03;;;;;;;9.07;8.20;;;;;;;;;;5067426;28;20210;-76
2022/08/19 09:20:31;;;;;;;9.63;8.73;;;;;;;;;;5063671;28;20232;-76
2022/08/19 09:22:58;;;;;;;9.68;8.63;;;;;;;;;;5027044;28;20922;-76
2022/08/19 09:25:34;;;;;;;8.95;8.10;;;;;;;;;;5068534;28;20222;-76
2022/08/19 09:28:05;;;;;;;9.45;8.55;;;;;;;;;;5066722;28;20234;-76
2022/08/19 09:30:39;;;;;;;8.15;7.55;;;;;;;;;;5082010;28;20300;-75
2022/08/19 09:33:04;;;;;;;9.27;8.40;;;;;;;;;;5049992;28;20722;-76
2022/08/19 09:35:30;;;;;;;9.07;8.10;;;;;;;;;;5076413;28;20218;-75
2022/08/19 09:37:58;;;;;;;8.98;8.15;;;;;;;;;;5046157;28;20601;-76
2022/08/19 09:40:25;;;;;;;8.20;7.40;;;;;;;;;;5048487;28;20226;-76
2022/08/19 09:43:00;;;;;;;8.20;7.50;;;;;;;;;;5061494;28;20263;-76
2022/08/19 09:45:25;;;;;;;8.90;8.02;;;;;;;;;;5064271;28;20347;-76
2022/08/19 09:47:54;;;;;;;8.00;7.20;;;;;;;;;;5052584;28;20703;-76
2022/08/19 09:50:19;;;;;;;7.45;6.75;;;;;;;;;;5067905;28;20233;-76
2022/08/19 09:52:47;;;;;;;7.68;6.82;;;;;;;;;;5066951;28;20223;-76
2022/08/19 09:55:13;;;;;;;8.50;7.68;;;;;;;;;;5049071;28;20222;-76
2022/08/19 09:57:43;;;;;;;9.23;7.75;;;;;;;;;;5060624;28;20257;-75
2022/08/19 10:00:11;;;;;;;8.85;7.57;;;;;;;;;;5046921;28;20222;-76
2022/08/19 10:02:37;;;;;;;9.73;8.70;;;;;;;;;;5084020;28;20264;-76
2022/08/19 10:07:49;;;;;;;9.55;8.63;;;;;;;;;;5078273;28;20222;-75
2022/08/19 10:10:17;;;;;;;8.30;7.60;;;;;;;;;;5063072;28;20222;-76
2022/08/19 10:12:48;;;;;;;8.07;7.38;;;;;;;;;;5065427;28;20599;-76
2022/08/19 10:15:14;;;;;;;7.22;6.53;;;;;;;;;;5065083;28;20308;-76
2022/08/19 10:17:42;;;;;;;7.72;6.95;;;;;;;;;;5073586;28;20271;-76
2022/08/19 10:20:08;;;;;;;8.38;7.70;;;;;;;;;;5044812;28;20222;-75
2022/08/19 10:22:35;;;;;;;9.88;8.32;;;;;;;;;;5083010;28;20235;-76
2022/08/19 10:25:03;;;;;;;8.10;7.40;;;;;;;;;;5080595;28;20218;-75
2022/08/19 10:27:31;;;;;;;8.27;7.47;;;;;;;;;;5078691;28;20222;-76
2022/08/19 10:30:05;;;;;;;8.25;7.55;;;;;;;;;;5056893;28;20215;-75
2022/08/19 10:32:35;;;;;;;8.20;7.50;;;;;;;;;;5058647;28;20712;-76
2022/08/19 10:35:07;;;;;;;8.75;7.93;;;;;;;;;;5073704;28;20214;-76
2022/08/19 10:37:36;;;;;;;7.40;6.68;;;;;;;;;;5063902;28;20309;-75
2022/08/19 10:40:04;;;;;;;7.00;6.32;;;;;;;;;;5045007;28;20591;-74
2022/08/19 10:42:31;;;;;;;7.80;7.10;;;;;;;;;;5069185;28;20257;-75
2022/08/19 10:44:58;;;;;;;8.13;7.43;;;;;;;;;;5058783;28;20221;-73
2022/08/19 10:47:26;;;;;;;7.35;6.75;;;;;;;;;;5081992;28;20712;-76
2022/08/19 10:52:42;;;;;;;7.57;6.88;;;;;;;;;;5060848;28;20221;-75
2022/08/19 10:57:54;;;;;;;8.45;7.68;;;;;;;;;;5058447;28;20223;-75
2022/08/19 11:00:25;;;;;;;8.30;7.57;;;;;;;;;;5066059;28;21219;-75
2022/08/19 11:02:51;;;;;;;8.38;7.68;;;;;;;;;;5082179;28;20233;-75
2022/08/19 11:05:19;;;;;;;8.27;7.57;;;;;;;;;;5057618;28;20223;-75
2022/08/19 11:07:50;;;;;;;7.50;6.90;;;;;;;;;;5060097;28;20214;-75
2022/08/19 11:10:18;;;;;;;7.95;7.22;;;;;;;;;;5061356;28;20883;-75
2022/08/19 11:12:46;;;;;;;8.75;6.97;;;;;;;;;;5067948;28;20219;-75
2022/08/19 11:15:13;;;;;;;7.82;7.03;;;;;;;;;;5071989;28;20215;-76
2022/08/19 11:17:43;;;;;;;8.88;7.97;;;;;;;;;;5045255;28;20513;-76
2022/08/19 11:20:14;;;;;;;8.60;7.88;;;;;;;;;;5061751;28;20755;-75
2022/08/19 11:22:40;;;;;;;8.25;7.45;;;;;;;;;;5041822;28;20648;-75
2022/08/19 11:25:06;;;;;;;8.68;7.38;;;;;;;;;;5044260;28;20213;-75
2022/08/19 11:27:36;;;;;;;8.50;7.70;;;;;;;;;;5059396;28;20222;-75
2022/08/19 11:30:03;;;;;;;8.65;7.90;;;;;;;;;;5056696;28;20367;-76
2022/08/19 11:32:34;;;;;;;7.88;7.25;;;;;;;;;;5072512;28;20250;-76
2022/08/19 11:35:02;;;;;;;8.48;7.68;;;;;;;;;;5061745;28;20223;-75
2022/08/19 11:37:30;;;;;;;8.13;7.45;;;;;;;;;;5039021;28;20696;-76
2022/08/19 11:39:58;;;;;;;8.38;7.60;;;;;;;;;;5043522;28;20230;-76
2022/08/19 11:45:07;;;;;;;7.90;7.28;;;;;;;;;;5075482;28;20694;-76
2022/08/19 11:47:38;;;;;;;7.35;6.63;;;;;;;;;;5065667;28;20298;-76
2022/08/19 11:50:06;;;;;;;8.32;7.63;;;;;;;;;;5057928;28;20238;-76
2022/08/19 11:52:34;;;;;;;7.28;6.63;;;;;;;;;;5073400;28;20608;-78
2022/08/19 11:55:07;;;;;;;8.43;7.72;;;;;;;;;;5056541;28;20243;-77
2022/08/19 11:57:33;;;;;;;7.72;6.93;;;;;;;;;;5072016;28;20275;-77
2022/08/19 12:00:04;;;;;;;8.15;7.45;;;;;;;;;;5067897;28;20243;-76
2022/08/19 12:02:30;;;;;;;8.07;7.28;;;;;;;;;;5055791;28;20223;-76
2022/08/19 12:05:02;;;;;;;9.45;8.65;;;;;;;;;;5065277;28;20230;-76
2022/08/19 12:07:32;;;;;;;8.93;8.00;;;;;;;;;;5075829;28;20261;-76
2022/08/19 12:10:00;;;;;;;7.38;6.78;;;;;;;;;;5076276;28;20217;-76
2022/08/19 12:12:26;;;;;;;8.02;7.32;;;;;;;;;;5049323;28;20237;-77
2022/08/19 12:14:58;;;;;;;8.60;7.78;;;;;;;;;;5049658;28;20566;-78
2022/08/19 12:17:27;;;;;;;7.70;7.10;;;;;;;;;;5048818;28;20301;-78
2022/08/19 12:19:57;;;;;;;7.18;6.57;;;;;;;;;;5053485;28;20225;-76
2022/08/19 12:22:24;;;;;;;8.27;7.47;;;;;;;;;;5048724;28;20301;-77
2022/08/19 12:24:52;;;;;;;8.82;8.00;;;;;;;;;;5056328;28;20210;-76
2022/08/19 12:27:18;;;;;;;7.80;6.97;;;;;;;;;;5040646;28;20795;-77
2022/08/19 12:29:46;;;;;;;8.02;7.25;;;;;;;;;;5044141;28;20218;-76
2022/08/19 12:32:14;;;;;;;7.50;6.82;;;;;;;;;;5054754;28;20218;-77
2022/08/19 12:34:40;;;;;;;7.88;7.18;;;;;;;;;;5057260;28;20260;-76
2022/08/19 12:37:10;;;;;;;8.45;7.70;;;;;;;;;;5048201;28;20283;-76
2022/08/19 12:39:41;;;;;;;7.40;6.80;;;;;;;;;;5035540;28;20229;-76
2022/08/19 12:42:08;;;;;;;7.80;6.95;;;;;;;;;;5046302;28;20779;-77
2022/08/19 12:44:36;;;;;;;7.07;6.45;;;;;;;;;;5061628;28;20222;-77
2022/08/19 12:47:04;;;;;;;7.03;6.38;;;;;;;;;;5032662;28;20276;-77
2022/08/19 12:49:31;;;;;;;6.90;6.40;;;;;;;;;;5048123;28;20222;-76
2022/08/19 12:52:10;;;;;;;7.07;6.47;;;;;;;;;;5031788;28;20787;-77
2022/08/19 12:54:41;;;;;;;7.68;7.07;;;;;;;;;;5032504;28;20276;-78
2022/08/19 12:57:09;;;;;;;7.15;6.50;;;;;;;;;;5035307;28;20257;-77
2022/08/19 12:59:42;;;;;;;6.80;6.30;;;;;;;;;;5048856;28;20222;-76
2022/08/19 13:02:15;;;;;;;6.55;5.97;;;;;;;;;;5057087;28;20233;-76
2022/08/19 13:04:43;;;;;;;6.88;6.32;;;;;;;;;;5046603;28;20223;-78
2022/08/19 13:07:08;;;;;;;7.22;6.25;;;;;;;;;;5023175;28;20218;-76
2022/08/19 13:09:34;;;;;;;6.20;5.60;;;;;;;;;;5041336;28;20732;-77
2022/08/19 13:12:06;;;;;;;5.53;5.13;;;;;;;;;;5040542;28;20360;-78
2022/08/19 13:14:38;;;;;;;6.45;5.93;;;;;;;;;;5051748;28;20229;-77
2022/08/19 13:17:08;;;;;;;8.20;6.05;;;;;;;;;;5057595;28;20222;-76
2022/08/19 13:19:39;;;;;;;6.88;6.28;;;;;;;;;;5034069;28;20230;-77
2022/08/19 13:22:07;;;;;;;6.55;6.03;;;;;;;;;;5058601;28;20218;-77
2022/08/19 13:24:36;;;;;;;7.25;6.05;;;;;;;;;;5043643;28;20786;-76
2022/08/19 13:27:02;;;;;;;6.72;5.38;;;;;;;;;;5059628;28;20219;-76
2022/08/19 13:34:58;;;;;;;6.45;5.85;;;;;;;;;;5058370;28;20211;-76
2022/08/19 13:37:42;;;;;;;6.68;5.82;;;;;;;;;;5030096;28;20249;-77
2022/08/19 13:40:18;;;;;;;6.00;5.50;;;;;;;;;;5068876;28;20210;-76
2022/08/19 13:42:47;;;;;;;5.30;4.82;;;;;;;;;;5065035;28;20235;-76
2022/08/19 13:45:16;;;;;;;5.10;4.70;;;;;;;;;;5050388;28;20222;-77
2022/08/19 13:47:48;;;;;;;6.47;5.38;;;;;;;;;;5055782;28;20733;-76
2022/08/19 13:50:16;;;;;;;6.03;5.53;;;;;;;;;;5058781;28;20233;-77
2022/08/19 13:52:42;;;;;;;6.00;5.40;;;;;;;;;;5048549;28;20525;-77
2022/08/19 13:55:08;;;;;;;5.28;4.88;;;;;;;;;;5033223;28;20211;-77
2022/08/19 13:57:36;;;;;;;5.45;4.95;;;;;;;;;;5028125;28;20280;-77
2022/08/19 14:00:11;;;;;;;6.03;5.22;;;;;;;;;;5051321;28;20214;-78
2022/08/19 14:02:37;;;;;;;6.32;5.82;;;;;;;;;;5046259;28;20221;-77
2022/08/19 14:05:07;;;;;;;6.43;5.85;;;;;;;;;;5063485;28;20217;-75
2022/08/19 14:07:32;;;;;;;5.75;5.32;;;;;;;;;;5059830;28;20225;-77
2022/08/19 14:10:01;;;;;;;5.40;5.00;;;;;;;;;;5064361;28;21139;-77
2022/08/19 14:12:29;;;;;;;4.70;4.30;;;;;;;;;;5039839;28;20885;-76
2022/08/19 14:14:57;;;;;;;4.57;4.28;;;;;;;;;;5048651;28;20578;-76
2022/08/19 14:17:24;;;;;;;5.72;4.70;;;;;;;;;;5068565;28;20908;-77
2022/08/19 14:19:56;;;;;;;4.50;4.20;;;;;;;;;;5072957;28;20218;-76
2022/08/19 14:22:24;;;;;;;4.93;4.53;;;;;;;;;;5031534;28;20221;-74
2022/08/19 14:24:50;;;;;;;5.20;4.80;;;;;;;;;;5060199;28;20214;-75
2022/08/19 14:27:18;;;;;;;5.43;4.72;;;;;;;;;;5039078;28;20233;-74
2022/08/19 14:29:45;;;;;;;4.60;4.28;;;;;;;;;;5042273;28;20535;-76
2022/08/19 14:32:15;;;;;;;4.72;4.32;;;;;;;;;;5059111;28;20271;-78
2022/08/19 14:34:45;;;;;;;4.63;4.25;;;;;;;;;;5032579;28;20226;-76
2022/08/19 14:37:14;;;;;;;4.90;4.50;;;;;;;;;;5045758;28;20222;-77
2022/08/19 14:39:42;;;;;;;4.50;4.10;;;;;;;;;;5057914;28;20254;-76
2022/08/19 14:42:15;;;;;;;4.43;4.03;;;;;;;;;;5043638;28;20219;-76
2022/08/19 14:44:41;;;;;;;4.15;3.85;;;;;;;;;;5041187;28;20225;-76
2022/08/19 14:47:09;;;;;;;4.57;4.20;;;;;;;;;;5040086;28;20210;-76
2022/08/19 14:49:37;;;;;;;5.25;3.85;;;;;;;;;;5025771;28;20215;-76
2022/08/19 14:52:07;;;;;;;4.80;4.30;;;;;;;;;;5066994;28;20673;-77
2022/08/19 14:54:37;;;;;;;4.40;4.00;;;;;;;;;;5043554;28;20224;-76
2022/08/19 14:57:02;;;;;;;4.38;3.97;;;;;;;;;;5048382;28;20281;-76
2022/08/19 14:59:28;;;;;;;4.95;4.55;;;;;;;;;;5073284;28;20217;-77
2022/08/19 15:01:56;;;;;;;4.15;3.85;;;;;;;;;;5048272;28;20317;-76
2022/08/19 15:04:25;;;;;;;4.40;3.80;;;;;;;;;;5066230;28;20322;-76
2022/08/19 15:06:51;;;;;;;3.95;3.65;;;;;;;;;;5057159;28;20250;-76
2022/08/19 15:09:16;;;;;;;4.85;4.03;;;;;;;;;;5040882;28;20253;-76
2022/08/19 15:11:49;;;;;;;5.07;4.25;;;;;;;;;;5073630;28;20539;-77
2022/08/19 15:14:17;;;;;;;3.53;3.30;;;;;;;;;;5055751;28;20225;-75
2022/08/19 15:16:42;;;;;;;4.93;3.92;;;;;;;;;;5057561;28;20238;-77
2022/08/19 15:19:08;;;;;;;4.18;3.88;;;;;;;;;;5042828;28;20228;-76
2022/08/19 15:21:36;;;;;;;3.75;3.45;;;;;;;;;;5047465;28;20229;-77
2022/08/19 15:24:02;;;;;;;3.40;3.20;;;;;;;;;;5042124;28;20226;-77
2022/08/19 15:26:32;;;;;;;3.60;3.30;;;;;;;;;;5049997;28;20233;-76